createdAt,value
2023-01-19T00:02:42.059Z,22.07
2023-01-19T00:07:44.268Z,24.92
2023-01-19T00:12:46.443Z,21.90
2023-01-19T00:17:48.595Z,23.33
2023-01-19T00:22:51.159Z,22.42
2023-01-19T00:27:53.269Z,21.50
2023-01-19T00:32:55.723Z,22.52
2023-01-19T00:37:58.656Z,21.23
2023-01-19T00:43:01.238Z,19.17
2023-01-19T00:48:03.949Z,22.55
2023-01-19T00:53:06.147Z,20.53
2023-01-19T00:58:08.246Z,18.85
2023-01-19T01:03:10.734Z,16.05
2023-01-19T01:08:12.804Z,17.33
2023-01-19T01:13:20.861Z,16.23
2023-01-19T01:18:25.945Z,14.60
2023-01-19T01:23:28.058Z,15.75
2023-01-19T01:28:31.628Z,14.18
2023-01-19T01:33:40.939Z,13.82
2023-01-19T01:38:43.771Z,13.10
2023-01-19T01:43:58.501Z,11.40
2023-01-19T01:49:15.784Z,11.63
2023-01-19T01:54:30.901Z,10.95
2023-01-19T01:59:39.363Z,10.48
2023-01-19T02:04:47.305Z,10.98
2023-01-19T02:10:08.257Z,9.17
2023-01-19T02:15:18.426Z,9.73
2023-01-19T02:20:24.120Z,8.68
2023-01-19T02:25:26.943Z,8.15
2023-01-19T02:30:29.658Z,7.28
2023-01-19T02:35:32.428Z,7.87
2023-01-19T02:40:36.953Z,8.02
2023-01-19T02:45:39.603Z,7.47
2023-01-19T02:50:49.501Z,6.30
2023-01-19T02:56:04.870Z,7.00
2023-01-19T03:01:24.110Z,6.40
2023-01-19T03:06:41.417Z,5.03
2023-01-19T03:11:50.300Z,5.78
2023-01-19T03:16:57.331Z,4.97
2023-01-19T03:22:03.946Z,5.03
2023-01-19T03:27:18.355Z,4.63
2023-01-19T03:32:26.036Z,5.85
2023-01-19T03:37:30.438Z,5.35
2023-01-19T03:42:33.269Z,5.45
2023-01-19T03:47:36.409Z,4.62
2023-01-19T03:52:38.912Z,4.00
2023-01-19T03:57:41.073Z,5.03
2023-01-19T04:02:43.186Z,3.58
2023-01-19T04:07:47.782Z,4.18
2023-01-19T04:12:49.876Z,4.43
2023-01-19T04:17:52.178Z,3.67
2023-01-19T04:22:56.703Z,4.03
2023-01-19T04:27:58.855Z,2.33
2023-01-19T04:33:01.317Z,4.65
2023-01-19T04:38:03.773Z,3.85
2023-01-19T04:43:05.992Z,3.47
2023-01-19T04:48:08.683Z,2.75
2023-01-19T04:53:12.379Z,3.00
2023-01-19T04:58:15.197Z,2.75
2023-01-19T05:03:17.347Z,2.25
2023-01-19T05:08:19.523Z,2.77
2023-01-19T05:13:21.666Z,2.90
2023-01-19T05:18:23.779Z,3.20
2023-01-19T05:23:25.807Z,3.37
2023-01-19T05:28:32.675Z,2.65
2023-01-19T05:33:34.869Z,2.80
2023-01-19T05:38:36.956Z,2.95
2023-01-19T05:43:39.078Z,3.75
2023-01-19T05:48:41.201Z,3.35
2023-01-19T05:53:43.371Z,4.78
2023-01-19T05:58:45.496Z,4.90
2023-01-19T06:03:48.778Z,4.28
2023-01-19T06:08:50.951Z,3.97
2023-01-19T06:13:53.240Z,4.25
2023-01-19T06:18:55.885Z,3.30
2023-01-19T06:23:58.765Z,4.53
2023-01-19T06:29:01.416Z,5.18
2023-01-19T06:34:04.305Z,5.37
2023-01-19T06:39:06.433Z,6.37
2023-01-19T06:44:09.271Z,5.97
2023-01-19T06:49:11.389Z,5.37
2023-01-19T06:54:13.606Z,5.57
2023-01-19T06:59:15.798Z,6.47
2023-01-19T07:04:17.885Z,6.75
2023-01-19T07:09:20.551Z,7.85
2023-01-19T07:14:22.738Z,7.70
2023-01-19T07:19:24.987Z,6.47
2023-01-19T07:24:27.267Z,8.40
2023-01-19T07:29:29.674Z,7.10
2023-01-19T07:34:31.903Z,8.70
2023-01-19T07:39:36.603Z,9.23
2023-01-19T07:44:38.755Z,8.98
2023-01-19T07:49:40.903Z,8.55
2023-01-19T07:54:43.144Z,8.43
2023-01-19T07:59:45.362Z,8.80
2023-01-19T08:04:50.554Z,8.10
2023-01-19T08:09:52.796Z,9.80
2023-01-19T08:14:54.899Z,9.77
2023-01-19T08:19:57.332Z,9.90
2023-01-19T08:24:59.413Z,11.43
2023-01-19T08:30:01.472Z,11.47
2023-01-19T08:35:03.805Z,11.35
2023-01-19T08:40:06.646Z,12.95
2023-01-19T08:45:09.460Z,10.85
2023-01-19T08:50:12.003Z,12.65
2023-01-19T08:55:14.164Z,12.00
2023-01-19T09:00:16.733Z,12.90
2023-01-19T09:05:19.544Z,12.73
2023-01-19T09:10:21.881Z,15.05
2023-01-19T09:15:24.049Z,14.90
2023-01-19T09:20:26.291Z,13.57
2023-01-19T09:25:28.390Z,13.95
2023-01-19T09:30:30.951Z,14.75
2023-01-19T09:35:33.880Z,15.48
2023-01-19T09:40:44.920Z,17.12
2023-01-19T09:45:50.151Z,16.53
2023-01-19T09:50:55.907Z,18.20
2023-01-19T09:55:58.471Z,19.37
2023-01-19T10:01:15.025Z,23.05
2023-01-19T10:06:18.215Z,19.17
2023-01-19T10:11:34.530Z,21.80
2023-01-19T10:16:59.235Z,25.50
2023-01-19T10:22:13.269Z,27.87
2023-01-19T10:27:23.963Z,28.87
2023-01-19T10:32:30.487Z,23.25
2023-01-19T10:37:42.064Z,26.13
2023-01-19T10:42:44.241Z,22.35
2023-01-19T10:47:47.785Z,25.90
2023-01-19T10:52:55.082Z,16.48
2023-01-19T10:57:58.922Z,21.98
2023-01-19T11:03:02.091Z,20.50
2023-01-19T11:08:23.031Z,18.37
2023-01-19T11:13:25.319Z,21.98
2023-01-19T11:18:33.931Z,19.25
2023-01-19T11:23:43.053Z,20.55
2023-01-19T11:28:51.408Z,22.30
2023-01-19T11:33:56.523Z,18.45
2023-01-19T11:39:21.616Z,22.95
2023-01-19T11:44:30.091Z,22.73
2023-01-19T11:49:49.640Z,23.60
2023-01-19T11:55:17.276Z,25.43
2023-01-19T12:00:31.605Z,24.98
2023-01-19T12:05:41.249Z,22.92
2023-01-19T12:10:46.939Z,24.98
2023-01-19T12:15:55.144Z,22.60
2023-01-19T12:20:58.902Z,23.43
2023-01-19T12:26:13.105Z,24.80
2023-01-19T12:31:17.948Z,24.37
2023-01-19T12:36:40.926Z,26.90
2023-01-19T12:41:43.479Z,27.45
2023-01-19T12:46:50.200Z,22.60
2023-01-19T12:51:55.598Z,23.33
2023-01-19T12:57:01.136Z,22.20
2023-01-19T13:02:24.908Z,21.83
2023-01-19T13:07:27.109Z,24.08
2023-01-19T13:12:29.472Z,22.37
2023-01-19T13:17:36.519Z,24.60
2023-01-19T13:22:50.312Z,26.33
2023-01-19T13:27:52.568Z,25.88
2023-01-19T13:33:06.475Z,18.70
2023-01-19T13:38:14.201Z,21.13
2023-01-19T13:43:21.198Z,20.67
2023-01-19T13:48:25.086Z,23.38
2023-01-19T13:53:27.698Z,18.65
2023-01-19T13:58:31.980Z,20.12
2023-01-19T14:03:34.229Z,20.80
2023-01-19T14:08:37.052Z,18.98
2023-01-19T14:13:44.910Z,21.12
2023-01-19T14:18:59.602Z,25.37
2023-01-19T14:24:10.501Z,23.60
2023-01-19T14:29:33.777Z,29.80
2023-01-19T14:34:51.200Z,26.75
2023-01-19T14:40:08.158Z,25.65
2023-01-19T14:45:30.349Z,25.35
2023-01-19T14:50:42.840Z,21.00
2023-01-19T14:55:55.513Z,23.63
2023-01-19T15:00:58.245Z,26.08
2023-01-19T15:06:03.543Z,29.50
2023-01-19T15:11:13.856Z,31.52
2023-01-19T15:16:16.372Z,25.35
2023-01-19T15:21:21.751Z,31.67
2023-01-19T15:26:25.587Z,27.48
2023-01-19T15:31:27.910Z,24.15
2023-01-19T15:36:30.089Z,31.27
2023-01-19T15:41:32.801Z,32.38
2023-01-19T15:46:34.941Z,28.83
2023-01-19T15:51:37.125Z,30.40
2023-01-19T15:56:41.432Z,28.25
2023-01-19T16:01:43.684Z,25.10
2023-01-19T16:06:45.974Z,25.58
2023-01-19T16:11:48.173Z,31.93
2023-01-19T16:16:50.359Z,33.70
2023-01-19T16:21:52.561Z,23.75
2023-01-19T16:26:54.640Z,32.95
2023-01-19T16:31:57.288Z,35.40
2023-01-19T16:36:59.409Z,30.57
2023-01-19T16:42:01.533Z,26.55
2023-01-19T16:47:04.748Z,25.15
2023-01-19T16:52:07.497Z,28.65
2023-01-19T16:57:12.169Z,24.17
2023-01-19T17:02:14.332Z,29.80
2023-01-19T17:07:18.914Z,26.55
2023-01-19T17:12:21.451Z,23.35
2023-01-19T17:17:23.587Z,27.37
2023-01-19T17:22:25.774Z,28.95
2023-01-19T17:27:27.922Z,25.03
2023-01-19T17:32:30.027Z,25.67
2023-01-19T17:37:32.121Z,23.12
2023-01-19T17:42:38.375Z,26.95
2023-01-19T17:47:40.491Z,28.35
2023-01-19T17:52:42.896Z,27.07
2023-01-19T17:57:45.088Z,27.08
2023-01-19T18:02:52.106Z,23.35
2023-01-19T18:07:54.232Z,24.12
2023-01-19T18:12:56.277Z,25.02
2023-01-19T18:17:58.351Z,25.87
2023-01-19T18:23:00.527Z,28.05
2023-01-19T18:28:02.672Z,21.73
2023-01-19T18:33:04.788Z,21.48
2023-01-19T18:38:06.927Z,25.27
2023-01-19T18:43:10.608Z,25.13
2023-01-19T18:48:12.748Z,22.67
2023-01-19T18:53:14.841Z,26.55
2023-01-19T18:58:16.953Z,24.70
2023-01-19T19:03:20.438Z,23.87
2023-01-19T19:08:22.636Z,25.50
2023-01-19T19:13:25.450Z,20.48
2023-01-19T19:18:27.621Z,23.73
2023-01-19T19:23:30.072Z,27.58
2023-01-19T19:28:35.306Z,24.05
2023-01-19T19:33:38.285Z,23.03
2023-01-19T19:38:44.537Z,27.95
2023-01-19T19:43:46.841Z,25.42
2023-01-19T19:48:49.814Z,27.80
2023-01-19T19:53:54.222Z,28.70
2023-01-19T19:58:57.734Z,26.40
2023-01-19T20:04:05.749Z,24.23
2023-01-19T20:09:09.197Z,28.08
2023-01-19T20:14:13.536Z,24.25
2023-01-19T20:19:15.683Z,27.58
2023-01-19T20:24:19.927Z,25.83
2023-01-19T20:29:22.195Z,24.87
2023-01-19T20:34:28.192Z,20.80
2023-01-19T20:39:33.423Z,23.23
2023-01-19T20:44:35.731Z,17.60
2023-01-19T20:49:37.969Z,29.33
2023-01-19T20:54:41.114Z,26.30
2023-01-19T20:59:43.321Z,28.17
2023-01-19T21:04:45.448Z,27.10
2023-01-19T21:09:47.582Z,28.92
2023-01-19T21:14:49.758Z,26.87
2023-01-19T21:19:51.955Z,24.15
2023-01-19T21:24:54.097Z,25.95
2023-01-19T21:29:56.380Z,28.00
2023-01-19T21:34:58.471Z,22.25
2023-01-19T21:40:00.581Z,24.37
2023-01-19T21:45:02.777Z,25.60
2023-01-19T21:50:05.300Z,26.33
2023-01-19T21:55:08.127Z,26.42
2023-01-19T22:00:10.798Z,26.50
2023-01-19T22:05:13.687Z,24.13
2023-01-19T22:10:16.545Z,24.23
2023-01-19T22:15:18.910Z,22.25
2023-01-19T22:20:20.996Z,25.52
2023-01-19T22:25:27.706Z,25.30
2023-01-19T22:30:30.054Z,23.70
2023-01-19T22:35:33.337Z,24.95
2023-01-19T22:40:35.432Z,22.25
2023-01-19T22:45:41.465Z,21.35
2023-01-19T22:50:43.590Z,27.00
2023-01-19T22:55:45.693Z,26.20
2023-01-19T23:00:47.766Z,25.10
2023-01-19T23:05:49.908Z,25.55
2023-01-19T23:10:51.988Z,22.00
2023-01-19T23:15:54.146Z,24.70
2023-01-19T23:20:56.292Z,22.93
2023-01-19T23:26:16.160Z,21.25
2023-01-19T23:31:32.512Z,20.15
2023-01-19T23:36:37.000Z,21.80
2023-01-19T23:41:39.231Z,22.73
2023-01-19T23:46:42.116Z,19.17
2023-01-19T23:51:44.262Z,20.48
2023-01-19T23:56:46.398Z,23.60
